createdAt,value
2019-02-02T00:00:50.155Z,8.87
2019-02-02T00:03:29.629Z,9.50
2019-02-02T00:06:08.521Z,11.40
2019-02-02T00:08:47.760Z,11.10
2019-02-02T00:11:27.694Z,12.03
2019-02-02T00:14:06.708Z,10.90
2019-02-02T00:16:46.582Z,11.53
2019-02-02T00:19:25.591Z,15.27
2019-02-02T00:22:04.750Z,13.50
2019-02-02T00:24:44.367Z,10.83
2019-02-02T00:27:24.314Z,11.77
2019-02-02T00:30:04.235Z,12.53
2019-02-02T00:32:43.196Z,13.47
2019-02-02T00:35:22.207Z,14.43
2019-02-02T00:38:02.106Z,14.30
2019-02-02T00:40:41.383Z,14.87
2019-02-02T00:43:21.063Z,13.97
2019-02-02T00:46:00.240Z,12.00
2019-02-02T00:48:40.075Z,16.03
2019-02-02T00:51:19.143Z,13.53
2019-02-02T00:53:58.335Z,17.13
2019-02-02T00:56:37.300Z,13.20
2019-02-02T00:59:16.787Z,12.93
2019-02-02T01:01:56.532Z,15.47
2019-02-02T01:04:36.623Z,15.50
2019-02-02T01:07:16.691Z,14.73
2019-02-02T01:09:56.596Z,16.47
2019-02-02T01:12:35.579Z,16.23
2019-02-02T01:15:14.712Z,20.33
2019-02-02T01:17:54.223Z,14.20
2019-02-02T01:20:34.073Z,14.03
2019-02-02T01:23:13.318Z,13.90
2019-02-02T01:25:53.391Z,15.47
2019-02-02T01:28:32.410Z,17.03
2019-02-02T01:31:11.583Z,17.73
2019-02-02T01:33:50.887Z,18.40
2019-02-02T01:36:30.375Z,17.50
2019-02-02T01:39:09.416Z,17.90
2019-02-02T01:41:48.647Z,16.57
2019-02-02T01:44:28.541Z,22.53
2019-02-02T01:47:08.399Z,18.00
2019-02-02T01:49:47.513Z,21.10
2019-02-02T01:52:26.683Z,15.83
2019-02-02T01:55:06.505Z,21.43
2019-02-02T01:57:45.672Z,18.97
2019-02-02T02:00:24.653Z,15.70
2019-02-02T02:03:03.637Z,20.30
2019-02-02T02:05:42.775Z,18.50
2019-02-02T02:08:22.865Z,16.53
2019-02-02T02:11:02.137Z,21.60
2019-02-02T02:13:42.090Z,18.13
2019-02-02T02:16:21.919Z,16.80
2019-02-02T02:19:01.079Z,18.53
2019-02-02T02:21:40.241Z,24.57
2019-02-02T02:24:19.285Z,15.13
2019-02-02T02:26:58.355Z,15.97
2019-02-02T02:29:37.824Z,13.90
2019-02-02T02:32:17.673Z,18.27
2019-02-02T02:34:57.554Z,14.60
2019-02-02T02:37:37.339Z,15.93
2019-02-02T02:40:16.367Z,18.47
2019-02-02T02:42:55.330Z,18.10
2019-02-02T02:45:34.667Z,21.30
2019-02-02T02:48:13.669Z,21.97
2019-02-02T02:50:52.690Z,19.47
2019-02-02T02:53:31.927Z,16.67
2019-02-02T02:56:11.401Z,18.07
2019-02-02T02:58:51.112Z,20.13
2019-02-02T03:01:31.286Z,22.30
2019-02-02T03:04:10.498Z,19.80
2019-02-02T03:06:49.435Z,18.03
2019-02-02T03:09:28.430Z,17.77
2019-02-02T03:12:07.388Z,21.83
2019-02-02T03:14:46.585Z,26.23
2019-02-02T03:17:52.943Z,22.43
2019-02-02T03:20:32.426Z,21.47
2019-02-02T03:23:18.324Z,19.70
2019-02-02T03:26:04.442Z,22.37
2019-02-02T03:28:53.453Z,20.93
2019-02-02T03:31:38.229Z,24.73
2019-02-02T03:34:24.226Z,23.83
2019-02-02T03:37:10.336Z,23.37
2019-02-02T03:39:56.255Z,28.30
2019-02-02T03:42:42.137Z,21.97
2019-02-02T03:45:28.052Z,21.67
2019-02-02T03:48:13.926Z,22.23
2019-02-02T03:50:59.950Z,19.63
2019-02-02T03:53:45.872Z,23.17
2019-02-02T03:56:31.875Z,22.80
2019-02-02T03:59:17.766Z,25.53
2019-02-02T04:02:03.677Z,23.37
2019-02-02T04:04:49.805Z,25.03
2019-02-02T04:07:35.724Z,20.97
2019-02-02T04:10:21.611Z,23.33
2019-02-02T04:13:07.521Z,21.77
2019-02-02T04:15:53.419Z,23.37
2019-02-02T04:18:39.535Z,23.57
2019-02-02T04:21:19.452Z,22.97
2019-02-02T04:24:05.339Z,20.67
2019-02-02T04:26:51.238Z,22.00
2019-02-02T04:29:37.364Z,24.50
2019-02-02T04:32:23.275Z,32.03
2019-02-02T04:35:09.879Z,19.97
2019-02-02T04:37:56.007Z,25.50
2019-02-02T04:40:41.912Z,20.47
2019-02-02T04:43:27.799Z,20.47
2019-02-02T04:46:13.705Z,25.33
2019-02-02T04:48:59.843Z,27.87
2019-02-02T04:51:45.789Z,26.67
2019-02-02T04:54:31.684Z,25.90
2019-02-02T04:57:17.575Z,25.57
2019-02-02T05:00:25.247Z,29.20
2019-02-02T05:03:11.226Z,26.33
2019-02-02T05:05:57.110Z,24.37
2019-02-02T05:08:43.032Z,21.13
2019-02-02T05:11:28.925Z,26.43
2019-02-02T05:14:14.831Z,29.67
2019-02-02T05:17:00.723Z,24.63
2019-02-02T05:19:46.630Z,26.40
2019-02-02T05:22:26.136Z,24.73
2019-02-02T05:25:12.139Z,25.33
2019-02-02T05:27:58.059Z,24.30
2019-02-02T05:30:43.958Z,24.13
2019-02-02T05:33:29.950Z,29.10
2019-02-02T05:36:15.843Z,27.63
2019-02-02T05:39:23.767Z,22.93
2019-02-02T05:42:09.654Z,33.23
2019-02-02T05:44:55.568Z,28.97
2019-02-02T05:47:41.699Z,27.00
2019-02-02T05:50:27.600Z,25.10
2019-02-02T05:53:13.521Z,30.80
2019-02-02T05:55:59.483Z,27.97
2019-02-02T05:58:45.367Z,30.33
2019-02-02T06:01:31.307Z,32.97
2019-02-02T06:04:17.203Z,29.23
2019-02-02T06:07:03.100Z,27.63
2019-02-02T06:09:48.992Z,29.37
2019-02-02T06:12:34.893Z,27.47
2019-02-02T06:15:21.018Z,32.07
2019-02-02T06:18:07.040Z,27.67
2019-02-02T06:20:52.942Z,28.77
2019-02-02T06:23:32.608Z,32.50
2019-02-02T06:26:18.495Z,27.13
2019-02-02T06:29:04.417Z,31.07
2019-02-02T06:31:50.548Z,31.43
2019-02-02T06:34:36.480Z,31.23
2019-02-02T06:37:22.591Z,31.00
2019-02-02T06:40:09.504Z,28.57
2019-02-02T06:42:55.429Z,25.97
2019-02-02T06:45:41.494Z,30.03
2019-02-02T06:48:27.379Z,31.67
2019-02-02T06:51:13.389Z,36.37
2019-02-02T06:53:59.275Z,30.87
2019-02-02T06:56:45.226Z,29.73
2019-02-02T06:59:31.130Z,31.63
2019-02-02T07:02:17.031Z,27.93
2019-02-02T07:05:24.759Z,29.73
2019-02-02T07:08:10.884Z,28.73
2019-02-02T07:10:56.795Z,29.57
2019-02-02T07:13:42.902Z,27.97
2019-02-02T07:16:29.038Z,31.23
2019-02-02T07:19:14.923Z,26.33
2019-02-02T07:22:00.824Z,28.57
2019-02-02T07:24:44.302Z,27.20
2019-02-02T07:27:30.212Z,27.53
2019-02-02T07:30:27.635Z,33.20
2019-02-02T07:33:04.805Z,35.00
2019-02-02T07:35:50.692Z,35.43
2019-02-02T07:38:36.692Z,33.60
2019-02-02T07:41:22.574Z,28.70
2019-02-02T07:44:08.532Z,29.93
2019-02-02T07:46:54.421Z,40.87
2019-02-02T07:49:40.441Z,38.27
2019-02-02T07:52:26.323Z,35.73
2019-02-02T07:55:32.110Z,38.60
2019-02-02T07:58:18.276Z,40.80
2019-02-02T08:01:04.254Z,42.20
2019-02-02T08:03:50.142Z,47.50
2019-02-02T08:06:36.067Z,46.07
2019-02-02T08:09:22.192Z,44.73
2019-02-02T08:12:08.228Z,55.33
2019-02-02T08:14:54.115Z,43.37
2019-02-02T08:17:40.036Z,44.70
2019-02-02T08:20:25.932Z,40.93
2019-02-02T08:23:11.862Z,43.53
2019-02-02T08:25:51.564Z,46.57
2019-02-02T08:28:37.923Z,45.50
2019-02-02T08:31:23.803Z,44.60
2019-02-02T08:34:09.716Z,44.20
2019-02-02T08:36:55.609Z,47.37
2019-02-02T08:39:41.524Z,45.30
2019-02-02T08:42:27.416Z,50.50
2019-02-02T08:45:13.816Z,44.93
2019-02-02T08:47:59.707Z,44.40
2019-02-02T08:50:46.357Z,44.60
2019-02-02T08:53:32.552Z,48.47
2019-02-02T08:56:18.566Z,40.57
2019-02-02T08:59:04.569Z,43.13
2019-02-02T09:01:50.503Z,45.43
2019-02-02T09:04:36.706Z,44.13
2019-02-02T09:07:23.446Z,48.43
2019-02-02T09:10:31.350Z,47.47
2019-02-02T09:13:17.450Z,48.67
2019-02-02T09:16:03.365Z,52.40
2019-02-02T09:18:51.315Z,47.87
2019-02-02T09:21:37.439Z,51.83
2019-02-02T09:24:23.628Z,51.47
2019-02-02T09:27:03.560Z,51.40
2019-02-02T09:29:49.696Z,59.83
2019-02-02T09:32:35.612Z,49.97
2019-02-02T09:35:21.864Z,48.50
2019-02-02T09:38:07.808Z,58.03
2019-02-02T09:40:53.741Z,48.30
2019-02-02T09:43:39.876Z,49.93
2019-02-02T09:46:25.839Z,62.53
2019-02-02T09:49:11.736Z,52.50
2019-02-02T09:51:57.645Z,51.77
2019-02-02T09:54:43.534Z,55.30
2019-02-02T09:57:29.528Z,56.63
2019-02-02T10:00:37.228Z,58.37
2019-02-02T10:03:23.506Z,53.77
2019-02-02T10:06:09.403Z,50.27
2019-02-02T10:08:55.536Z,51.53
2019-02-02T10:11:41.536Z,53.97
2019-02-02T10:14:27.453Z,57.33
2019-02-02T10:17:13.340Z,59.40
2019-02-02T10:19:59.250Z,64.57
2019-02-02T10:22:45.384Z,65.47
2019-02-02T10:25:31.284Z,56.33
2019-02-02T10:28:14.077Z,58.40
2019-02-02T10:30:59.987Z,57.90
2019-02-02T10:33:45.884Z,67.43
2019-02-02T10:36:31.796Z,70.47
2019-02-02T10:39:17.706Z,61.40
2019-02-02T10:42:03.616Z,71.03
2019-02-02T10:44:49.519Z,63.37
2019-02-02T10:47:35.652Z,60.20
2019-02-02T10:50:22.604Z,57.93
2019-02-02T10:53:08.499Z,57.80
2019-02-02T10:55:54.409Z,69.27
2019-02-02T10:58:40.286Z,63.57
2019-02-02T11:01:26.200Z,61.87
2019-02-02T11:04:12.375Z,57.67
2019-02-02T11:06:58.335Z,61.93
2019-02-02T11:09:44.458Z,60.17
2019-02-02T11:12:30.355Z,63.80
2019-02-02T11:15:17.295Z,63.30
2019-02-02T11:18:04.158Z,56.33
2019-02-02T11:20:51.893Z,56.90
2019-02-02T11:23:37.801Z,54.77
2019-02-02T11:26:23.834Z,50.63
2019-02-02T11:29:03.455Z,57.57
2019-02-02T11:31:49.363Z,56.50
2019-02-02T11:34:35.265Z,54.50
2019-02-02T11:37:21.194Z,53.77
2019-02-02T11:40:28.872Z,52.77
2019-02-02T11:43:14.783Z,54.53
2019-02-02T11:46:00.691Z,54.00
2019-02-02T11:48:46.593Z,52.37
2019-02-02T11:51:32.503Z,55.70
2019-02-02T11:54:18.402Z,54.03
2019-02-02T11:57:04.319Z,51.93
2019-02-02T11:59:50.203Z,58.60
2019-02-02T12:02:36.352Z,51.27
2019-02-02T12:05:22.492Z,51.87
2019-02-02T12:08:08.400Z,48.40
2019-02-02T12:10:54.301Z,52.77
2019-02-02T12:13:40.237Z,49.87
2019-02-02T12:16:26.120Z,47.00
2019-02-02T12:19:12.022Z,47.40
2019-02-02T12:21:57.939Z,46.67
2019-02-02T12:24:44.174Z,50.83
2019-02-02T12:27:30.068Z,53.53
2019-02-02T12:30:10.796Z,59.30
2019-02-02T12:32:56.694Z,49.13
2019-02-02T12:35:42.835Z,55.20
2019-02-02T12:38:28.750Z,54.23
2019-02-02T12:41:14.644Z,60.07
2019-02-02T12:44:00.788Z,62.77
2019-02-02T12:46:46.668Z,51.13
2019-02-02T12:49:32.575Z,57.03
2019-02-02T12:52:18.476Z,43.83
2019-02-02T12:55:05.353Z,41.93
2019-02-02T12:57:51.257Z,46.57
2019-02-02T13:00:37.203Z,50.27
2019-02-02T13:03:23.112Z,41.07
2019-02-02T13:06:09.007Z,44.53
2019-02-02T13:08:54.918Z,45.93
2019-02-02T13:11:40.802Z,42.13
2019-02-02T13:14:26.702Z,45.30
2019-02-02T13:17:12.611Z,40.40
2019-02-02T13:19:58.510Z,42.40
2019-02-02T13:22:44.495Z,39.80
2019-02-02T13:25:30.392Z,34.03
2019-02-02T13:28:16.293Z,39.03
2019-02-02T13:30:56.527Z,32.70
2019-02-02T13:33:42.417Z,37.50
2019-02-02T13:36:28.340Z,32.53
2019-02-02T13:39:14.247Z,36.93
2019-02-02T13:42:00.193Z,34.07
2019-02-02T13:44:46.126Z,36.57
2019-02-02T13:47:32.282Z,39.67
2019-02-02T13:50:18.393Z,36.57
2019-02-02T13:53:04.880Z,41.30
2019-02-02T13:55:51.023Z,44.23
2019-02-02T13:58:36.914Z,46.90
2019-02-02T14:01:22.825Z,45.03
2019-02-02T14:04:08.710Z,52.77
2019-02-02T14:06:54.610Z,44.63
2019-02-02T14:09:40.609Z,43.77
2019-02-02T14:12:26.528Z,37.30
2019-02-02T14:15:12.912Z,39.33
2019-02-02T14:17:58.852Z,44.27
2019-02-02T14:20:44.746Z,45.00
2019-02-02T14:23:30.652Z,43.20
2019-02-02T14:26:16.534Z,41.73
2019-02-02T14:29:02.536Z,43.40
2019-02-02T14:31:42.575Z,49.43
2019-02-02T14:34:39.554Z,48.20
2019-02-02T14:37:16.482Z,49.53
2019-02-02T14:40:24.222Z,44.93
2019-02-02T14:43:10.137Z,43.13
2019-02-02T14:45:56.276Z,45.87
2019-02-02T14:48:42.463Z,43.97
2019-02-02T14:51:28.368Z,43.63
2019-02-02T14:54:14.279Z,52.10
2019-02-02T14:57:00.166Z,45.43
2019-02-02T14:59:46.076Z,47.27
2019-02-02T15:02:31.972Z,46.90
2019-02-02T15:08:18.452Z,41.53
2019-02-02T15:11:04.360Z,43.53
2019-02-02T15:13:44.195Z,43.73
2019-02-02T15:16:30.112Z,43.50
2019-02-02T15:19:16.001Z,39.20
2019-02-02T15:22:01.903Z,41.60
2019-02-02T15:24:47.791Z,38.13
2019-02-02T15:27:33.692Z,40.33
2019-02-02T15:30:41.747Z,40.50
2019-02-02T15:33:37.602Z,41.27
2019-02-02T15:36:15.434Z,48.73
2019-02-02T15:39:01.415Z,41.80
2019-02-02T15:41:53.105Z,45.47
2019-02-02T15:44:35.119Z,46.90
2019-02-02T15:47:21.028Z,51.70
2019-02-02T15:50:28.700Z,50.07
2019-02-02T15:53:14.704Z,53.47
2019-02-02T15:56:00.849Z,52.80
2019-02-02T15:58:47.073Z,49.07
2019-02-02T16:01:33.191Z,52.03
2019-02-02T16:04:19.098Z,51.23
2019-02-02T16:07:05.240Z,50.10
2019-02-02T16:09:51.224Z,56.13
2019-02-02T16:12:37.116Z,49.20
2019-02-02T16:15:17.062Z,54.23
2019-02-02T16:18:03.453Z,60.10
2019-02-02T16:20:49.344Z,57.17
2019-02-02T16:23:35.256Z,58.60
2019-02-02T16:26:21.147Z,52.13
2019-02-02T16:29:07.047Z,51.53
2019-02-02T16:31:52.944Z,57.13
2019-02-02T16:34:39.074Z,49.30
2019-02-02T16:37:24.963Z,52.20
2019-02-02T16:40:30.742Z,55.23
2019-02-02T16:43:16.638Z,53.03
2019-02-02T16:46:02.945Z,55.07
2019-02-02T16:48:48.839Z,56.50
2019-02-02T16:51:34.747Z,59.10
2019-02-02T16:54:20.636Z,50.33
2019-02-02T16:57:06.544Z,54.33
2019-02-02T16:59:52.432Z,56.67
2019-02-02T17:02:38.591Z,58.83
2019-02-02T17:05:24.485Z,63.80
2019-02-02T17:08:10.402Z,56.70
2019-02-02T17:10:56.301Z,55.57
2019-02-02T17:13:36.435Z,59.80
2019-02-02T17:16:22.351Z,57.00
2019-02-02T17:19:08.239Z,56.63
2019-02-02T17:21:54.149Z,49.67
2019-02-02T17:24:40.295Z,59.30
2019-02-02T17:27:26.234Z,62.60
2019-02-02T17:30:33.907Z,59.20
2019-02-02T17:33:20.067Z,69.30
2019-02-02T17:36:05.965Z,68.33
2019-02-02T17:38:51.872Z,56.63
2019-02-02T17:41:37.754Z,57.63
2019-02-02T17:44:23.804Z,61.37
2019-02-02T17:47:09.716Z,63.60
2019-02-02T17:49:55.636Z,56.17
2019-02-02T17:52:41.626Z,60.63
2019-02-02T17:55:27.528Z,65.20
2019-02-02T17:58:13.621Z,58.90
2019-02-02T18:00:59.632Z,53.33
2019-02-02T18:03:45.524Z,53.43
2019-02-02T18:06:31.673Z,55.70
2019-02-02T18:09:17.565Z,54.37
2019-02-02T18:12:03.467Z,50.83
2019-02-02T18:14:43.442Z,51.27
2019-02-02T18:17:29.365Z,54.70
2019-02-02T18:20:15.351Z,57.57
2019-02-02T18:23:01.251Z,55.30
2019-02-02T18:25:47.135Z,55.77
2019-02-02T18:28:33.042Z,52.43
2019-02-02T18:31:18.964Z,47.20
2019-02-02T18:34:04.871Z,39.50
2019-02-02T18:36:50.886Z,37.63
2019-02-02T18:39:37.007Z,33.77
2019-02-02T18:42:22.924Z,39.30
2019-02-02T18:45:30.611Z,29.20
2019-02-02T18:48:16.523Z,25.03
2019-02-02T18:51:02.511Z,23.73
2019-02-02T18:53:48.427Z,25.03
2019-02-02T18:56:34.314Z,28.07
2019-02-02T18:59:20.461Z,38.17
2019-02-02T19:02:06.355Z,31.77
2019-02-02T19:05:02.979Z,25.40
2019-02-02T19:07:40.056Z,29.83
2019-02-02T19:13:46.533Z,31.77
2019-02-02T19:16:25.822Z,30.57
2019-02-02T19:19:11.732Z,33.73
2019-02-02T19:21:57.637Z,29.20
2019-02-02T19:24:43.564Z,25.13
2019-02-02T19:27:29.473Z,34.57
2019-02-02T19:30:37.143Z,26.90
2019-02-02T19:33:23.037Z,27.67
2019-02-02T19:36:09.158Z,23.93
2019-02-02T19:38:55.076Z,28.07
2019-02-02T19:41:40.961Z,26.87
2019-02-02T19:44:26.865Z,32.57
2019-02-02T19:47:16.171Z,29.90
2019-02-02T19:50:00.579Z,32.60
2019-02-02T19:52:46.707Z,25.50
2019-02-02T19:55:32.660Z,25.10
2019-02-02T19:58:18.785Z,25.33
2019-02-02T20:01:05.018Z,24.03
2019-02-02T20:03:51.137Z,21.33
2019-02-02T20:06:37.052Z,20.03
2019-02-02T20:09:22.971Z,25.07
2019-02-02T20:12:09.196Z,18.83
2019-02-02T20:14:48.667Z,19.87
2019-02-02T20:17:34.576Z,23.33
2019-02-02T20:20:21.287Z,20.20
2019-02-02T20:23:07.461Z,18.90
2019-02-02T20:25:53.356Z,19.93
2019-02-02T20:28:39.265Z,21.00
2019-02-02T20:31:25.167Z,16.70
2019-02-02T20:34:11.308Z,17.93
2019-02-02T20:36:57.427Z,19.80
2019-02-02T20:39:43.570Z,19.37
2019-02-02T20:42:29.461Z,18.33
2019-02-02T20:45:37.467Z,16.73
2019-02-02T20:48:23.378Z,17.13
2019-02-02T20:51:09.372Z,16.87
2019-02-02T20:53:55.290Z,16.20
2019-02-02T20:56:41.182Z,15.73
2019-02-02T20:59:27.087Z,15.77
2019-02-02T21:02:13.015Z,19.93
2019-02-02T21:04:59.228Z,11.37
2019-02-02T21:07:45.121Z,10.57
2019-02-02T21:10:31.028Z,16.17
2019-02-02T21:13:16.931Z,14.20
2019-02-02T21:15:56.837Z,11.27
2019-02-02T21:18:42.742Z,13.67
2019-02-02T21:21:28.641Z,10.73
2019-02-02T21:24:15.076Z,11.33
2019-02-02T21:27:00.991Z,9.83
2019-02-02T21:29:46.913Z,12.47
2019-02-02T21:32:32.809Z,9.47
2019-02-02T21:35:18.717Z,9.07
2019-02-02T21:38:04.824Z,9.27
2019-02-02T21:40:50.720Z,8.30
2019-02-02T21:43:37.255Z,10.47
2019-02-02T21:46:23.162Z,10.47
2019-02-02T21:49:09.324Z,11.90
2019-02-02T21:51:55.198Z,11.83
2019-02-02T21:54:41.332Z,8.20
2019-02-02T21:57:27.229Z,9.80
2019-02-02T22:00:34.915Z,10.93
2019-02-02T22:03:20.799Z,10.13
2019-02-02T22:06:15.226Z,9.87
2019-02-02T22:08:55.490Z,13.10
2019-02-02T22:11:41.643Z,15.47
2019-02-02T22:14:20.771Z,15.97
2019-02-02T22:17:06.921Z,13.90
2019-02-02T22:19:52.823Z,12.17
2019-02-02T22:22:38.980Z,14.50
2019-02-02T22:25:46.645Z,16.73
2019-02-02T22:28:32.552Z,12.07
2019-02-02T22:31:18.663Z,17.87
2019-02-02T22:34:04.572Z,13.87
2019-02-02T22:36:50.485Z,11.07
2019-02-02T22:39:36.371Z,12.77
2019-02-02T22:42:22.291Z,11.20
2019-02-02T22:45:29.971Z,12.27
2019-02-02T22:48:16.116Z,12.83
2019-02-02T22:51:02.240Z,13.07
2019-02-02T22:53:48.143Z,14.10
2019-02-02T22:56:34.258Z,14.27
2019-02-02T22:59:20.229Z,12.50
2019-02-02T23:02:07.027Z,13.17
2019-02-02T23:05:15.378Z,13.13
2019-02-02T23:07:44.233Z,16.83
2019-02-02T23:10:44.400Z,14.10
2019-02-02T23:13:52.619Z,17.80
2019-02-02T23:16:26.683Z,14.73
2019-02-02T23:18:53.139Z,14.77
2019-02-02T23:21:40.120Z,17.00
2019-02-02T23:24:19.676Z,17.30
2019-02-02T23:27:06.001Z,16.73
2019-02-02T23:29:51.977Z,17.70
2019-02-02T23:32:37.858Z,13.90
2019-02-02T23:35:23.766Z,13.27
2019-02-02T23:38:09.644Z,11.97
2019-02-02T23:40:55.552Z,11.37
2019-02-02T23:43:41.439Z,15.83
2019-02-02T23:46:27.645Z,16.90
2019-02-02T23:49:13.578Z,11.83
2019-02-02T23:51:59.455Z,17.07
2019-02-02T23:54:45.363Z,14.27
2019-02-02T23:57:31.277Z,9.87
